Time;durP1;ratioP1;P1;durP2;ratioP2;P2;SDS_P1;SDS_P2;PMS_P1;PMS_P2;Temp;Humidity;BMP_temperature;BMP_pressure;BME280_temperature;BME280_humidity;BME280_pressure;Samples;Min_cycle;Max_cycle;Signal;HPM_P1;HPM_P2
2021/06/26 00:00:27;;;;;;;13.68;4.65;;;;;;;27.41;100.00;100864.06;4862853;29;20029;-76
2021/06/26 00:03:13;;;;;;;16.60;4.55;;;;;;;27.94;100.00;100867.59;4862072;29;20086;-76
2021/06/26 00:05:59;;;;;;;15.88;4.63;;;;;;;27.97;100.00;100856.56;4863183;29;20033;-76
2021/06/26 00:08:44;;;;;;;14.65;4.60;;;;;;;28.11;100.00;100847.25;4850473;29;20069;-77
2021/06/26 00:11:31;;;;;;;14.50;4.43;;;;;;;28.10;100.00;100832.06;4862469;29;20484;-76
2021/06/26 00:14:17;;;;;;;15.77;4.20;;;;;;;27.95;100.00;100809.16;4862789;29;20034;-77
2021/06/26 00:17:03;;;;;;;13.38;4.80;;;;;;;27.77;100.00;100795.47;4861721;29;20076;-76
2021/06/26 00:19:49;;;;;;;14.73;4.75;;;;;;;27.62;100.00;100775.25;4862507;29;20456;-76
2021/06/26 00:22:35;;;;;;;12.73;4.53;;;;;;;27.86;100.00;100756.13;4850040;29;20037;-76
2021/06/26 00:25:25;;;;;;;18.27;5.22;;;;;;;27.63;100.00;100741.09;4861638;29;20052;-76
2021/06/26 00:28:10;;;;;;;13.82;5.60;;;;;;;27.71;100.00;100731.34;4848689;29;20112;-76
2021/06/26 00:30:56;;;;;;;17.60;5.40;;;;;;;27.34;100.00;100697.88;4862800;29;20048;-76
2021/06/26 00:33:42;;;;;;;18.92;6.70;;;;;;;27.22;100.00;100694.44;4862675;29;20033;-76
2021/06/26 00:36:28;;;;;;;21.85;7.78;;;;;;;26.97;100.00;100672.44;4862056;29;20148;-76
2021/06/26 00:39:14;;;;;;;17.55;7.30;;;;;;;27.10;100.00;100657.81;4853222;29;20036;-76
2021/06/26 00:42:02;;;;;;;18.75;7.38;;;;;;;27.15;100.00;100634.03;4863622;29;20085;-76
2021/06/26 00:44:48;;;;;;;18.33;7.50;;;;;;;27.13;100.00;100627.09;4853263;29;20097;-76
2021/06/26 00:47:35;;;;;;;22.02;7.65;;;;;;;27.33;100.00;100618.97;4851459;29;20446;-76
2021/06/26 00:50:27;;;;;;;17.00;7.43;;;;;;;27.66;100.00;100625.91;4866712;29;20116;-76
2021/06/26 00:53:12;;;;;;;22.90;8.23;;;;;;;27.75;100.00;100640.38;4864413;29;20431;-76
2021/06/26 00:55:58;;;;;;;19.75;7.72;;;;;;;27.86;100.00;100633.09;4865816;29;20022;-76
2021/06/26 00:58:45;;;;;;;17.25;8.07;;;;;;;27.52;100.00;100626.28;4866656;29;20030;-76
2021/06/26 01:01:31;;;;;;;16.92;7.47;;;;;;;27.87;100.00;100607.00;4850429;29;20491;-76
2021/06/26 01:04:17;;;;;;;18.15;7.88;;;;;;;27.81;100.00;100607.53;4865638;29;20029;-76
2021/06/26 01:07:03;;;;;;;19.05;8.00;;;;;;;27.79;100.00;100594.19;4865321;29;20109;-76
2021/06/26 01:09:49;;;;;;;19.20;8.50;;;;;;;27.51;100.00;100588.75;4839719;29;20523;-76
2021/06/26 01:12:36;;;;;;;23.60;8.45;;;;;;;27.30;100.00;100575.38;4851586;29;20454;-76
2021/06/26 01:15:21;;;;;;;25.73;8.77;;;;;;;27.33;100.00;100580.47;4864043;29;20025;-76
2021/06/26 01:18:08;;;;;;;20.83;8.55;;;;;;;27.52;100.00;100599.34;4865232;29;20045;-76
2021/06/26 01:20:53;;;;;;;17.98;8.43;;;;;;;27.70;100.00;100599.56;4850730;29;20025;-76
2021/06/26 01:23:46;;;;;;;18.35;8.43;;;;;;;27.55;100.00;100600.97;4865019;29;20215;-76
2021/06/26 01:26:35;;;;;;;19.38;8.55;;;;;;;27.61;100.00;100619.22;4851783;29;20033;-76
2021/06/26 01:29:21;;;;;;;25.55;9.82;;;;;;;27.63;100.00;100639.63;4864978;29;20178;-76
2021/06/26 01:32:07;;;;;;;18.55;8.43;;;;;;;27.73;100.00;100661.22;4865324;29;20108;-76
2021/06/26 01:34:53;;;;;;;23.88;8.43;;;;;;;27.73;100.00;100674.69;4852013;29;20030;-76
2021/06/26 01:37:42;;;;;;;18.67;8.82;;;;;;;27.17;100.00;100667.03;4863599;29;20241;-76
2021/06/26 01:40:29;;;;;;;20.27;9.13;;;;;;;27.05;100.00;100684.22;4863602;29;20044;-76
2021/06/26 01:43:15;;;;;;;15.77;8.82;;;;;;;27.31;100.00;100698.16;4863212;29;20109;-76
2021/06/26 01:46:00;;;;;;;19.38;9.25;;;;;;;27.41;100.00;100712.53;4851945;29;20042;-76
2021/06/26 01:48:46;;;;;;;14.90;9.02;;;;;;;27.22;100.00;100742.00;4864186;29;20038;-76
2021/06/26 01:51:34;;;;;;;19.20;9.05;;;;;;;27.42;100.00;100746.53;4864824;29;20112;-76
2021/06/26 01:54:19;;;;;;;16.75;8.85;;;;;;;27.25;100.00;100744.44;4864980;29;20029;-76
2021/06/26 01:57:07;;;;;;;21.95;9.75;;;;;;;26.82;100.00;100752.56;4863243;29;20043;-75
2021/06/26 01:59:53;;;;;;;21.52;10.05;;;;;;;26.90;100.00;100757.31;4863547;29;20022;-76
2021/06/26 02:02:39;;;;;;;22.20;9.68;;;;;;;27.05;100.00;100770.28;4851281;29;20116;-76
2021/06/26 02:05:25;;;;;;;19.95;9.88;;;;;;;26.78;100.00;100790.59;4863954;29;20033;-76
2021/06/26 02:08:11;;;;;;;25.23;9.98;;;;;;;27.11;100.00;100799.38;4864862;29;20045;-76
2021/06/26 02:10:57;;;;;;;19.15;9.30;;;;;;;27.21;100.00;100799.50;4864300;29;20054;-76
2021/06/26 02:13:42;;;;;;;22.50;10.07;;;;;;;26.91;100.00;100780.50;4850541;29;20106;-76
2021/06/26 02:16:28;;;;;;;20.80;9.63;;;;;;;26.71;100.00;100760.69;4851699;29;20057;-77
2021/06/26 02:19:14;;;;;;;20.20;9.50;;;;;;;26.66;100.00;100765.59;4864183;29;20021;-77
2021/06/26 02:22:01;;;;;;;23.85;10.23;;;;;;;26.46;100.00;100766.34;4862607;29;20521;-76
2021/06/26 02:24:47;;;;;;;18.98;9.52;;;;;;;26.75;100.00;100774.72;4862435;29;20044;-76
2021/06/26 02:27:33;;;;;;;21.92;9.32;;;;;;;26.73;100.00;100774.00;4863413;29;20117;-75
2021/06/26 02:30:19;;;;;;;23.27;10.48;;;;;;;26.68;100.00;100771.69;4864523;29;20026;-75
2021/06/26 02:33:05;;;;;;;22.00;9.77;;;;;;;26.47;100.00;100768.06;4863802;29;20345;-76
2021/06/26 02:35:51;;;;;;;25.02;10.10;;;;;;;25.99;100.00;100795.34;4864062;29;20447;-76
2021/06/26 02:38:37;;;;;;;19.65;9.95;;;;;;;26.03;100.00;100834.41;4862299;29;20133;-76
2021/06/26 02:41:22;;;;;;;23.85;10.48;;;;;;;26.04;100.00;100879.09;4850993;29;20079;-76
2021/06/26 02:44:08;;;;;;;23.77;10.00;;;;;;;26.12;100.00;100917.78;4850928;29;20037;-76
2021/06/26 02:46:54;;;;;;;23.75;10.98;;;;;;;26.24;100.00;100895.34;4862889;29;20033;-76
2021/06/26 02:49:40;;;;;;;20.50;11.00;;;;;;;26.30;100.00;100877.88;4863281;29;20036;-77
2021/06/26 02:52:25;;;;;;;32.83;13.13;;;;;;;25.71;100.00;100860.19;4862912;29;20052;-76
2021/06/26 02:55:12;;;;;;;27.23;14.57;;;;;;;24.72;100.00;100871.38;4862745;29;20036;-75
2021/06/26 02:57:58;;;;;;;23.90;14.20;;;;;;;24.36;100.00;100860.63;4862809;29;20039;-76
2021/06/26 03:00:43;;;;;;;28.55;16.77;;;;;;;24.29;100.00;100837.03;4862332;29;20033;-75
2021/06/26 03:03:29;;;;;;;34.72;17.42;;;;;;;24.06;100.00;100811.06;4863080;29;20454;-75
2021/06/26 03:06:15;;;;;;;30.80;17.27;;;;;;;24.12;100.00;100767.78;4862823;29;20033;-76
2021/06/26 03:09:01;;;;;;;34.50;18.02;;;;;;;24.25;100.00;100766.78;4849595;29;20030;-76
2021/06/26 03:11:46;;;;;;;34.35;17.33;;;;;;;24.23;100.00;100754.47;4862192;29;20048;-75
2021/06/26 03:14:32;;;;;;;34.58;17.60;;;;;;;24.27;100.00;100755.97;4862667;29;20037;-75
2021/06/26 03:17:18;;;;;;;28.35;17.60;;;;;;;24.39;100.00;100750.53;4850351;29;20101;-75
2021/06/26 03:20:05;;;;;;;28.50;15.25;;;;;;;24.55;100.00;100750.28;4862702;29;20029;-75
2021/06/26 03:22:51;;;;;;;28.77;15.70;;;;;;;24.89;100.00;100789.69;4862200;29;20101;-75
2021/06/26 03:25:37;;;;;;;27.55;15.43;;;;;;;24.89;100.00;100829.91;4862697;29;20128;-75
2021/06/26 03:28:23;;;;;;;29.60;17.55;;;;;;;24.46;100.00;100888.44;4851166;29;20033;-76
2021/06/26 03:31:09;;;;;;;30.52;19.70;;;;;;;24.24;100.00;100962.38;4861935;29;20439;-76
2021/06/26 03:33:55;;;;;;;32.20;19.90;;;;;;;24.06;100.00;100979.75;4861611;29;20467;-76
2021/06/26 03:36:41;;;;;;;30.33;17.23;;;;;;;24.07;100.00;100994.84;4860988;29;20064;-76
2021/06/26 03:39:27;;;;;;;26.98;15.77;;;;;;;24.06;100.00;101001.16;4862547;29;20089;-76
2021/06/26 03:42:12;;;;;;;23.75;12.90;;;;;;;23.75;100.00;100980.91;4861468;29;20104;-76
2021/06/26 03:44:58;;;;;;;25.98;14.27;;;;;;;23.81;100.00;100980.50;4849276;29;20041;-76
2021/06/26 03:47:44;;;;;;;30.95;15.40;;;;;;;23.69;100.00;100975.13;4861232;29;20029;-76
2021/06/26 03:50:32;;;;;;;31.20;17.67;;;;;;;23.68;100.00;100973.41;4861970;29;20117;-76
2021/06/26 03:53:18;;;;;;;30.65;18.52;;;;;;;23.96;100.00;100965.25;4861893;29;20037;-77
2021/06/26 03:56:04;;;;;;;37.63;20.65;;;;;;;24.16;100.00;100972.78;4861915;29;20041;-75
2021/06/26 03:58:50;;;;;;;32.67;19.63;;;;;;;24.23;100.00;100980.25;4862974;29;20030;-75
2021/06/26 04:01:36;;;;;;;32.33;20.45;;;;;;;24.12;100.00;100984.66;4861863;29;20026;-75
2021/06/26 04:04:22;;;;;;;28.92;21.58;;;;;;;24.39;100.00;100991.63;4848217;29;20367;-75
2021/06/26 04:07:07;;;;;;;34.78;22.27;;;;;;;24.53;100.00;101007.59;4861624;29;20029;-76
2021/06/26 04:09:53;;;;;;;39.60;24.35;;;;;;;24.77;100.00;100995.16;4862672;29;20340;-76
2021/06/26 04:12:39;;;;;;;35.17;22.10;;;;;;;24.88;100.00;100989.91;4864496;29;20037;-76
2021/06/26 04:15:25;;;;;;;33.83;21.27;;;;;;;24.86;100.00;100978.41;4852180;29;20033;-76
2021/06/26 04:18:10;;;;;;;34.08;20.27;;;;;;;25.11;100.00;100978.34;4864639;29;20034;-76
2021/06/26 04:20:56;;;;;;;28.75;18.50;;;;;;;24.87;100.00;100981.97;4865281;29;20372;-76
2021/06/26 04:23:42;;;;;;;25.70;15.65;;;;;;;24.62;100.00;100984.66;4864949;29;20037;-75
2021/06/26 04:26:28;;;;;;;25.88;15.90;;;;;;;24.87;100.00;100968.56;4865746;29;20037;-75
2021/06/26 04:29:14;;;;;;;31.60;18.17;;;;;;;24.91;100.00;100951.28;4864364;29;20030;-76
2021/06/26 04:31:59;;;;;;;23.42;15.50;;;;;;;25.06;100.00;100945.66;4865534;29;20029;-76
2021/06/26 04:34:45;;;;;;;28.50;17.02;;;;;;;25.20;100.00;100948.16;4864598;29;20033;-76
2021/06/26 04:37:31;;;;;;;23.75;17.30;;;;;;;25.07;100.00;100955.41;4864598;29;20137;-76
2021/06/26 04:40:17;;;;;;;25.52;16.42;;;;;;;24.79;100.00;100953.00;4864430;29;20033;-76
2021/06/26 04:43:04;;;;;;;25.95;14.68;;;;;;;24.95;100.00;100939.38;4864166;29;20450;-76
2021/06/26 04:45:50;;;;;;;27.52;16.90;;;;;;;24.91;100.00;100938.72;4864239;29;20033;-76
2021/06/26 04:48:37;;;;;;;24.77;15.07;;;;;;;24.61;100.00;100937.41;4852227;29;20032;-75
2021/06/26 04:51:23;;;;;;;23.20;16.55;;;;;;;25.09;100.00;100929.34;4864208;29;20026;-75
2021/06/26 04:54:09;;;;;;;24.95;15.98;;;;;;;24.92;100.00;100931.56;4863644;29;20040;-75
2021/06/26 04:56:54;;;;;;;26.45;17.02;;;;;;;24.64;100.00;100932.72;4851904;29;20037;-75
2021/06/26 04:59:40;;;;;;;29.25;16.83;;;;;;;24.55;100.00;100917.22;4864024;29;20635;-76
2021/06/26 05:02:26;;;;;;;30.33;17.98;;;;;;;24.68;100.00;100903.84;4863864;29;20109;-76
2021/06/26 05:05:12;;;;;;;26.48;16.80;;;;;;;24.80;100.00;100909.19;4864252;29;20117;-76
2021/06/26 05:07:57;;;;;;;25.10;18.83;;;;;;;24.69;100.00;100932.34;4851922;29;20041;-75
2021/06/26 05:10:44;;;;;;;27.23;18.92;;;;;;;25.05;100.00;100938.59;4850466;29;20033;-76
2021/06/26 05:13:30;;;;;;;62.15;44.90;;;;;;;25.01;100.00;100942.47;4863990;29;20030;-76
2021/06/26 05:16:16;;;;;;;29.08;19.17;;;;;;;25.03;100.00;100945.03;4863994;29;20025;-77
2021/06/26 05:19:01;;;;;;;28.27;18.67;;;;;;;25.03;100.00;100943.19;4864411;29;20040;-76
2021/06/26 05:21:47;;;;;;;26.48;17.80;;;;;;;24.96;100.00;100951.81;4850820;29;20029;-76
2021/06/26 05:24:33;;;;;;;27.02;16.58;;;;;;;24.48;100.00;100955.31;4863737;29;20037;-76
2021/06/26 05:27:19;;;;;;;30.92;18.17;;;;;;;24.91;100.00;100946.78;4863966;29;20030;-76
2021/06/26 05:30:05;;;;;;;29.85;15.77;;;;;;;24.77;100.00;100943.38;4863199;29;20305;-77
2021/06/26 05:32:51;;;;;;;30.65;15.48;;;;;;;24.98;100.00;100940.00;4863258;29;20041;-77
2021/06/26 05:35:37;;;;;;;21.67;15.75;;;;;;;24.73;100.00;100936.53;4850523;29;20037;-76
2021/06/26 05:38:22;;;;;;;27.85;17.00;;;;;;;24.71;100.00;100931.28;4851133;29;20479;-75
2021/06/26 05:41:09;;;;;;;29.00;16.45;;;;;;;24.65;100.00;100922.81;4863297;29;20049;-76
2021/06/26 05:43:54;;;;;;;24.65;15.25;;;;;;;24.62;100.00;100920.34;4863720;29;20076;-77
2021/06/26 05:46:40;;;;;;;28.40;15.25;;;;;;;24.81;100.00;100924.28;4863197;29;20041;-76
2021/06/26 05:49:26;;;;;;;21.70;14.38;;;;;;;24.87;100.00;100923.00;4862616;29;20029;-76
2021/06/26 05:52:12;;;;;;;29.30;15.10;;;;;;;24.84;100.00;100924.06;4862850;29;20413;-76
2021/06/26 05:54:58;;;;;;;30.83;15.15;;;;;;;24.51;100.00;100933.66;4862757;29;20025;-76
2021/06/26 05:57:44;;;;;;;33.58;15.05;;;;;;;24.53;100.00;100939.75;4850114;29;20025;-76
2021/06/26 06:00:33;;;;;;;28.95;14.82;;;;;;;24.64;100.00;100950.59;4850096;29;20033;-76
2021/06/26 06:03:19;;;;;;;28.17;14.68;;;;;;;24.52;100.00;100971.06;4863180;29;20454;-76
2021/06/26 06:06:06;;;;;;;27.25;12.55;;;;;;;24.43;100.00;100976.22;4862767;29;20106;-76
2021/06/26 06:08:51;;;;;;;29.35;12.90;;;;;;;24.52;100.00;100964.84;4863650;29;20044;-76
2021/06/26 06:11:37;;;;;;;25.45;13.23;;;;;;;24.51;100.00;100945.22;4862277;29;20495;-77
2021/06/26 06:14:23;;;;;;;30.55;12.98;;;;;;;24.44;100.00;100938.59;4862566;29;20092;-76
2021/06/26 06:17:09;;;;;;;28.58;12.00;;;;;;;24.39;100.00;100935.38;4861892;29;20112;-76
2021/06/26 06:19:54;;;;;;;34.90;10.85;;;;;;;24.20;100.00;100931.44;4862285;29;20433;-77
2021/06/26 06:22:40;;;;;;;27.50;11.80;;;;;;;24.32;100.00;100931.44;4862353;29;20101;-76
2021/06/26 06:25:26;;;;;;;27.10;11.98;;;;;;;24.44;100.00;100932.38;4861735;29;20025;-76
2021/06/26 06:28:12;;;;;;;26.30;12.05;;;;;;;24.20;100.00;100932.28;4862407;29;20041;-76
2021/06/26 06:30:57;;;;;;;27.02;13.88;;;;;;;23.79;100.00;100936.91;4861982;29;20371;-76
2021/06/26 06:33:45;;;;;;;25.10;12.85;;;;;;;24.33;100.00;100948.34;4862250;29;20094;-76
2021/06/26 06:36:31;;;;;;;24.83;12.90;;;;;;;23.71;100.00;100949.97;4861852;29;20053;-77
2021/06/26 06:39:17;;;;;;;28.73;13.32;;;;;;;24.18;100.00;100960.16;4861846;29;20045;-75
2021/06/26 06:42:06;;;;;;;23.77;13.30;;;;;;;24.55;100.00;100953.91;4861749;29;20189;-76
2021/06/26 06:44:52;;;;;;;30.58;15.90;;;;;;;25.10;100.00;100947.13;4861905;29;20108;-76
2021/06/26 06:47:39;;;;;;;26.00;12.88;;;;;;;24.69;100.00;100951.13;4848648;29;20160;-77
2021/06/26 06:50:24;;;;;;;25.95;12.43;;;;;;;25.03;100.00;100953.06;4862196;29;20097;-76
2021/06/26 06:53:10;;;;;;;32.63;12.52;;;;;;;25.05;100.00;100941.28;4861634;29;20033;-76
2021/06/26 06:55:58;;;;;;;19.52;11.85;;;;;;;25.71;100.00;100954.16;4861858;29;20041;-76
2021/06/26 06:58:44;;;;;;;23.63;10.43;;;;;;;25.58;100.00;100945.31;4862331;29;20082;-76
2021/06/26 07:01:29;;;;;;;23.27;10.85;;;;;;;25.52;100.00;100943.97;4861762;29;20113;-76
2021/06/26 07:04:15;;;;;;;19.73;10.20;;;;;;;26.19;100.00;100943.22;4862278;29;20033;-76
2021/06/26 07:07:01;;;;;;;23.13;10.75;;;;;;;25.67;100.00;100933.88;4861717;29;20029;-77
2021/06/26 07:09:47;;;;;;;33.75;11.43;;;;;;;25.49;100.00;100935.28;4861990;29;20101;-76
2021/06/26 07:12:33;;;;;;;17.33;10.98;;;;;;;25.74;100.00;100927.06;4861882;29;20048;-76
2021/06/26 07:15:18;;;;;;;21.08;10.60;;;;;;;26.34;100.00;100906.22;4861850;29;20479;-77
2021/06/26 07:18:04;;;;;;;23.77;10.88;;;;;;;26.75;100.00;100895.69;4861645;29;20068;-77
2021/06/26 07:20:53;;;;;;;26.05;11.63;;;;;;;26.51;100.00;100895.81;4862422;29;20145;-77
2021/06/26 07:23:38;;;;;;;27.52;12.05;;;;;;;26.57;100.00;100881.03;4861384;29;20105;-77
2021/06/26 07:26:24;;;;;;;28.05;12.23;;;;;;;26.93;100.00;100870.00;4862011;29;20355;-77
2021/06/26 07:29:10;;;;;;;21.45;11.68;;;;;;;26.96;100.00;100877.78;4861440;29;20045;-77
2021/06/26 07:31:56;;;;;;;22.23;11.20;;;;;;;26.39;100.00;100871.75;4849300;29;20101;-76
2021/06/26 07:34:42;;;;;;;26.05;12.13;;;;;;;26.69;100.00;100867.47;4861642;29;20037;-76
2021/06/26 07:37:28;;;;;;;27.73;13.32;;;;;;;27.07;100.00;100864.31;4861301;29;20499;-75
2021/06/26 07:40:14;;;;;;;24.55;12.52;;;;;;;26.92;100.00;100854.81;4862280;29;20040;-76
2021/06/26 07:43:03;;;;;;;21.70;11.77;;;;;;;26.93;100.00;100851.19;4849655;29;20029;-77
2021/06/26 07:45:49;;;;;;;27.98;12.93;;;;;;;26.95;100.00;100858.13;4864282;29;20388;-76
2021/06/26 07:48:38;;;;;;;29.30;13.10;;;;;;;27.23;100.00;100848.63;4865915;29;20034;-76
2021/06/26 07:51:23;;;;;;;25.83;13.30;;;;;;;27.14;100.00;100844.88;4853948;29;20033;-75
2021/06/26 07:54:29;;;;;;;;;;;;;;;;;;;;;
2021/06/26 07:57:15;;;;;;;26.60;12.43;;;;;;;26.86;100.00;100858.03;4866222;29;20116;-77
2021/06/26 08:00:15;;;;;;;22.50;11.90;;;;;;;27.62;100.00;100856.03;4866990;29;20124;-77
2021/06/26 08:03:01;;;;;;;30.10;11.20;;;;;;;27.04;100.00;100854.69;4868852;29;20039;-75
2021/06/26 08:05:47;;;;;;;19.27;9.45;;;;;;;27.31;100.00;100856.91;4852390;29;20408;-75
2021/06/26 08:08:34;;;;;;;20.73;9.20;;;;;;;27.75;100.00;100853.97;4854194;29;20021;-76
2021/06/26 08:11:22;;;;;;;21.85;9.95;;;;;;;27.02;100.00;100867.41;4866364;29;20061;-76
2021/06/26 08:14:11;;;;;;;18.88;9.20;;;;;;;27.51;100.00;100866.84;4864773;29;20362;-76
2021/06/26 08:16:57;;;;;;;20.42;8.68;;;;;;;27.48;100.00;100851.81;4866734;29;20080;-75
2021/06/26 08:19:43;;;;;;;19.35;8.93;;;;;;;27.50;100.00;100857.06;4866066;29;20072;-76
2021/06/26 08:22:29;;;;;;;20.48;7.70;;;;;;;27.43;100.00;100864.81;4867129;29;20029;-77
2021/06/26 08:25:15;;;;;;;17.75;7.30;;;;;;;27.56;100.00;100863.78;4853595;29;20037;-76
2021/06/26 08:28:08;;;;;;;19.95;7.07;;;;;;;28.01;100.00;100866.09;4864695;29;20463;-78
2021/06/26 08:30:53;;;;;;;13.95;6.90;;;;;;;28.21;100.00;100854.38;4864059;29;20078;-76
2021/06/26 08:33:39;;;;;;;11.80;6.22;;;;;;;28.54;100.00;100842.47;4866389;29;20025;-75
2021/06/26 08:36:25;;;;;;;15.82;5.97;;;;;;;28.68;100.00;100864.50;4864946;29;20055;-75
2021/06/26 08:39:15;;;;;;;10.82;6.13;;;;;;;28.72;100.00;100865.94;4865147;29;20065;-76
2021/06/26 08:42:01;;;;;;;12.85;5.93;;;;;;;28.32;100.00;100867.75;4866208;29;20370;-75
2021/06/26 08:44:58;;;;;;;11.48;5.72;;;;;;;28.44;100.00;100871.28;4866547;29;20029;-76
2021/06/26 08:47:49;;;;;;;11.93;5.20;;;;;;;28.33;100.00;100864.06;4852706;29;20021;-76
2021/06/26 08:50:35;;;;;;;16.10;5.60;;;;;;;28.16;100.00;100871.97;4865567;29;20424;-76
2021/06/26 08:53:21;;;;;;;10.13;5.25;;;;;;;28.10;100.00;100859.00;4864282;29;20287;-75
2021/06/26 08:56:07;;;;;;;13.43;5.32;;;;;;;28.27;100.00;100861.06;4864190;29;20109;-76
2021/06/26 08:58:52;;;;;;;14.80;5.65;;;;;;;28.52;100.00;100866.03;4852772;29;20469;-77
2021/06/26 09:01:40;;;;;;;13.32;5.80;;;;;;;28.44;100.00;100864.00;4866225;29;20029;-76
2021/06/26 09:04:26;;;;;;;11.65;5.28;;;;;;;28.46;100.00;100853.97;4866151;29;20052;-76
2021/06/26 09:07:31;;;;;;;9.98;5.07;;;;;;;28.76;100.00;100853.06;4863486;29;20065;-77
2021/06/26 09:10:35;;;;;;;17.55;5.30;;;;;;;28.75;100.00;100854.88;4866503;29;20083;-76
2021/06/26 09:13:23;;;;;;;12.07;4.70;;;;;;;29.22;100.00;100853.25;4865159;29;20104;-78
2021/06/26 09:16:33;;;;;;;13.68;4.72;;;;;;;28.58;100.00;100852.00;4865884;29;20485;-77
2021/06/26 09:19:20;;;;;;;15.48;5.13;;;;;;;29.09;100.00;100852.69;4851163;29;20033;-77
2021/06/26 09:22:10;;;;;;;11.80;5.07;;;;;;;29.40;100.00;100844.28;4863665;29;20101;-76
2021/06/26 09:24:56;;;;;;;13.02;4.65;;;;;;;29.42;100.00;100836.06;4863046;29;20044;-76
2021/06/26 09:27:44;;;;;;;10.77;4.55;;;;;;;29.83;100.00;100836.59;4865014;29;20061;-77
2021/06/26 09:30:35;;;;;;;8.88;4.38;;;;;;;29.50;100.00;100833.50;4862779;29;20034;-77
2021/06/26 09:33:26;;;;;;;13.40;4.88;;;;;;;29.66;100.00;100839.19;4863611;29;20097;-78
2021/06/26 09:36:12;;;;;;;11.65;5.80;;;;;;;29.70;100.00;100835.19;4864616;29;20114;-77
2021/06/26 09:39:11;;;;;;;14.10;5.05;;;;;;;29.97;100.00;100822.59;4865218;29;20365;-76
2021/06/26 09:41:57;;;;;;;13.18;5.28;;;;;;;30.30;100.00;100821.22;4851739;29;20124;-77
2021/06/26 09:44:56;;;;;;;11.50;5.25;;;;;;;30.63;100.00;100818.75;4864012;29;20428;-78
2021/06/26 09:47:48;;;;;;;9.07;4.72;;;;;;;30.43;100.00;100810.88;4862571;29;20474;-77
2021/06/26 09:51:28;;;;;;;16.13;5.00;;;;;;;30.44;100.00;100802.63;4864351;29;20143;-78
2021/06/26 09:54:17;;;;;;;17.13;5.38;;;;;;;30.87;100.00;100804.66;4864332;29;20478;-76
2021/06/26 09:57:06;;;;;;;13.90;5.20;;;;;;;29.70;100.00;100798.22;4864063;29;20120;-76
2021/06/26 09:59:51;;;;;;;10.85;4.88;;;;;;;30.16;100.00;100784.72;4863223;29;20077;-76
2021/06/26 10:02:42;;;;;;;14.13;4.85;;;;;;;30.50;100.00;100788.47;4865210;29;20380;-81
2021/06/26 10:05:35;;;;;;;16.02;5.03;;;;;;;30.35;100.00;100787.31;4862875;29;20061;-77
2021/06/26 10:08:31;;;;;;;10.75;4.82;;;;;;;30.65;100.00;100778.84;4864318;29;20040;-76
2021/06/26 10:11:20;;;;;;;12.30;5.00;;;;;;;30.88;100.00;100777.44;4852263;29;20033;-78
2021/06/26 10:17:53;;;;;;;9.70;4.22;;;;;;;30.21;100.00;100770.72;4787111;30;20054;-80
2021/06/26 10:20:39;;;;;;;10.15;4.80;;;;;;;30.91;100.00;100781.69;4790399;29;20525;-77
2021/06/26 10:24:05;;;;;;;10.63;4.88;;;;;;;30.45;100.00;100782.69;5391356;23;20031;-78
2021/06/26 10:26:50;;;;;;;12.30;4.60;;;;;;;30.97;100.00;100789.16;4771509;30;20056;-77
2021/06/26 10:29:37;;;;;;;12.60;4.75;;;;;;;31.25;100.00;100788.97;4772023;30;20036;-76
2021/06/26 10:32:23;;;;;;;13.35;4.35;;;;;;;30.90;100.00;100793.53;4836299;29;20065;-75
2021/06/26 10:35:12;;;;;;;12.18;4.70;;;;;;;30.79;100.00;100793.75;4844191;29;20467;-75
2021/06/26 10:38:19;;;;;;;17.85;4.15;;;;;;;31.26;100.00;100785.22;4846279;29;20061;-75
2021/06/26 10:41:19;;;;;;;8.57;3.97;;;;;;;30.73;100.00;100789.78;4844712;29;20034;-75
2021/06/26 10:44:05;;;;;;;6.00;3.70;;;;;;;31.12;100.00;100791.19;4830361;29;20376;-76
2021/06/26 10:46:51;;;;;;;11.88;4.93;;;;;;;31.30;100.00;100786.63;4830977;29;20025;-75
2021/06/26 10:49:37;;;;;;;9.98;3.85;;;;;;;31.75;100.00;100783.72;4830707;29;20040;-75
2021/06/26 10:52:23;;;;;;;12.00;4.25;;;;;;;31.79;100.00;100770.72;4845912;29;20041;-75
2021/06/26 10:55:09;;;;;;;8.68;3.90;;;;;;;32.22;100.00;100766.00;4830649;29;20094;-75
2021/06/26 10:57:57;;;;;;;8.05;3.80;;;;;;;32.52;100.00;100764.63;4843744;29;20030;-75
2021/06/26 11:00:43;;;;;;;10.82;4.22;;;;;;;32.69;100.00;100771.78;4843050;29;20034;-75
2021/06/26 11:03:31;;;;;;;9.25;4.07;;;;;;;32.48;100.00;100769.53;4844780;29;20041;-75
2021/06/26 11:06:17;;;;;;;9.98;3.90;;;;;;;32.75;100.00;100768.41;4843636;29;20480;-75
2021/06/26 11:09:06;;;;;;;11.52;4.10;;;;;;;32.63;100.00;100759.75;4845806;29;20045;-76
2021/06/26 11:11:51;;;;;;;10.13;3.80;;;;;;;32.95;100.00;100751.66;4831758;29;20042;-75
2021/06/26 11:14:47;;;;;;;6.97;3.92;;;;;;;33.12;100.00;100755.22;4845972;29;20034;-76
2021/06/26 11:17:44;;;;;;;11.38;4.40;;;;;;;32.54;100.00;100754.47;4843448;29;20033;-75
2021/06/26 11:20:30;;;;;;;11.18;3.92;;;;;;;32.86;100.00;100746.41;4845329;29;20090;-75
2021/06/26 11:23:18;;;;;;;13.77;4.28;;;;;;;31.62;100.00;100758.06;4844891;29;20108;-77
2021/06/26 11:26:05;;;;;;;9.75;3.83;;;;;;;32.12;100.00;100748.19;4845499;29;20061;-76
2021/06/26 11:28:51;;;;;;;10.43;3.90;;;;;;;32.96;100.00;100741.66;4843152;29;20030;-76
2021/06/26 11:31:37;;;;;;;12.65;3.83;;;;;;;33.59;100.00;100751.63;4845498;29;20040;-76
2021/06/26 11:34:23;;;;;;;11.27;3.75;;;;;;;33.67;100.00;100748.88;4844928;29;20442;-76
2021/06/26 11:37:11;;;;;;;8.02;3.78;;;;;;;32.78;100.00;100752.63;4843508;29;20121;-76
2021/06/26 11:39:58;;;;;;;10.02;3.70;;;;;;;32.97;100.00;100755.06;4830014;29;20052;-76
2021/06/26 11:42:53;;;;;;;14.13;3.80;;;;;;;32.89;100.00;100746.91;4831637;29;20025;-76
2021/06/26 11:45:41;;;;;;;8.13;3.72;;;;;;;33.97;100.00;100740.00;4845797;29;20331;-76
2021/06/26 11:48:28;;;;;;;9.07;3.65;;;;;;;33.50;100.00;100735.50;4844766;29;20036;-76
2021/06/26 11:51:14;;;;;;;11.63;3.90;;;;;;;33.11;100.00;100727.19;4845553;29;20055;-75
2021/06/26 11:54:00;;;;;;;12.73;4.10;;;;;;;33.23;100.00;100733.97;4829785;29;20094;-75
2021/06/26 11:56:51;;;;;;;9.77;3.90;;;;;;;33.09;100.00;100729.25;4845382;29;20026;-75
2021/06/26 11:59:46;;;;;;;14.80;4.18;;;;;;;33.82;100.00;100717.28;4842196;29;20030;-76
2021/06/26 12:02:34;;;;;;;12.02;3.88;;;;;;;33.22;100.00;100721.44;4843088;29;20475;-76
2021/06/26 12:05:20;;;;;;;11.90;3.75;;;;;;;34.10;100.00;100709.50;4842629;29;20034;-76
2021/06/26 12:08:06;;;;;;;7.60;3.80;;;;;;;34.31;100.00;100712.50;4832344;29;20048;-76
2021/06/26 12:10:52;;;;;;;8.25;3.78;;;;;;;34.48;100.00;100712.19;4843171;29;20070;-76
2021/06/26 12:13:40;;;;;;;11.48;4.18;;;;;;;34.12;100.00;100700.13;4831516;29;20052;-76
2021/06/26 12:16:37;;;;;;;12.23;4.13;;;;;;;33.76;100.00;100689.91;4845022;29;20034;-76
2021/06/26 12:19:30;;;;;;;11.10;4.20;;;;;;;34.11;100.00;100684.84;4843116;29;20030;-76
2021/06/26 12:22:21;;;;;;;10.98;4.00;;;;;;;34.33;100.00;100688.66;4843626;29;20030;-76
2021/06/26 12:25:10;;;;;;;13.00;3.90;;;;;;;34.01;100.00;100684.22;4843439;29;20050;-76
2021/06/26 12:28:02;;;;;;;8.48;3.78;;;;;;;34.57;100.00;100681.19;4844081;29;20444;-76
2021/06/26 12:31:00;;;;;;;10.82;3.67;;;;;;;34.53;100.00;100674.41;4845170;29;20103;-76
2021/06/26 12:33:57;;;;;;;10.88;3.58;;;;;;;34.42;100.00;100665.81;4834591;29;20034;-76
2021/06/26 12:36:55;;;;;;;9.75;4.18;;;;;;;34.97;100.00;100670.00;4847903;29;20053;-76
2021/06/26 12:39:41;;;;;;;11.63;3.70;;;;;;;34.85;100.00;100673.34;4848601;29;20018;-76
2021/06/26 12:42:27;;;;;;;9.02;4.07;;;;;;;34.71;100.00;100666.78;4844978;29;20401;-76